• Join FlightAware (Why Join?)
  • Login
  • US Flag 
05:11AM EDT


 

Airport Tracker/Info


-or-


 

Live Flight TrackerFlight Track Log ✈ ASQ4516 ✈ 01-Aug-2013 ✈ KIAH - KHRL

Flight Track Log - Related Links

Times and Time Zones

All times are in EDT time to prevent confusion due to time zone crossing. See the ASQ4516 flight status page for this flight to view local times or setup timezone preferences in your user account.

Time Position Orientation Groundspeed Altitude Reporting Facility
EDT Latitude Longitude Course Direction KTS MPH feet Rate Location/Type
10:32PM 29.9639 -95.3433 189° South 150 173 700  Level Houston Center
10:33PM 29.9175 -95.2742 128° Southeast 231 266 2,900 1,560 Climbing Houston Center
10:34PM 29.8875 -95.2303 128° Southeast 237 273 4,200 1,920 Climbing Houston Center
10:35PM 29.8344 -95.1739 137° Southeast 263 303 6,400 1,980 Climbing Houston Center
10:36PM 29.7575 -95.1889 190° South 291 335 8,300 1,800 Climbing Houston Center
10:37PM 29.3997 -95.4501 189° South  Level FlightAware Approximate
10:37PM 29.6828 -95.2203 200° South 291 335 10,100  Level Houston Center
10:38PM 29.5794 -95.2608 199° South 342 394 10,900 840 Climbing Houston Center
10:39PM 29.4847 -95.2994 200° South 363 418 11,900 960 Climbing Houston Center
10:40PM 29.3872 -95.3386 199° South 371 427 12,900 960 Climbing Houston Center
10:41PM 29.2886 -95.3781 199° South 376 433 13,900 960 Climbing Houston Center
10:42PM 29.1883 -95.4194 200° South 381 438 14,900 960 Climbing Houston Center
10:43PM 29.0869 -95.4600 199° South 384 442 15,900 960 Climbing Houston Center
10:44PM 28.9861 -95.5003 199° South 384 442 16,900 960 Climbing Houston Center
10:45PM 28.8969 -95.5692 214° Southwest 384 442 17,900 1,080 Climbing Houston Center
10:46PM 28.7919 -95.6553 216° Southwest 386 444 19,100 1,080 Climbing Houston Center
10:47PM 28.7025 -95.7247 214° Southwest 388 447 20,100 900 Climbing Houston Center
10:48PM 28.6114 -95.7972 215° Southwest 395 455 21,000 840 Climbing Houston Center
10:49PM 28.5206 -95.8703 215° Southwest 398 458 21,900 840 Climbing Houston Center
10:50PM 28.4297 -95.9428 215° Southwest 400 460 22,800 780 Climbing Houston Center
10:51PM 28.3375 -96.0169 215° Southwest 400 460 23,600 780 Climbing Houston Center
10:52PM 28.2453 -96.0892 215° Southwest 401 461 24,400 780 Climbing Houston Center
10:53PM 28.1536 -96.1619 215° Southwest 402 463 25,200 780 Climbing Houston Center
10:54PM 28.0614 -96.2361 215° Southwest 404 465 26,000 780 Climbing Houston Center
10:55PM 27.9689 -96.3081 214° Southwest 403 464 26,800 780 Climbing Houston Center
10:56PM 27.8756 -96.3825 215° Southwest 406 467 27,600 540 Climbing Houston Center
10:57PM 27.7806 -96.4561 214° Southwest 410 472 28,000 180 Climbing Houston Center
10:58PM 27.6614 -96.5497 215° Southwest 427 491 28,000  Level Houston Center
10:59PM 27.5567 -96.6308 214° Southwest 445 512 28,000 -300 Level Houston Center
11:00PM 27.4525 -96.7128 215° Southwest 454 522 27,400 -1,140 Descending Houston Center
11:01PM 27.3450 -96.7967 215° Southwest 460 529 25,800 -1,920 Descending Houston Center
11:02PM 27.2364 -96.8808 215° Southwest 468 539 23,600 -2,220 Descending Houston Center
11:03PM 27.1319 -96.9600 214° Southwest 459 528 21,400 -2,100 Descending Houston Center
11:04PM 27.0328 -97.0372 215° Southwest 441 507 19,400 -2,040 Descending Houston Center
11:05PM 26.9347 -97.1125 214° Southwest 430 495 17,300 -2,100 Descending Houston Center
11:06PM 26.8389 -97.1931 217° Southwest 394 453 15,200 -2,460 Descending Houston Center
11:07PM 26.7500 -97.2708 218° Southwest 375 432 12,400 -2,520 Descending Houston Center
11:08PM 26.6756 -97.3381 219° Southwest 346 398 10,100 -1,740 Descending Houston Center
11:09PM 26.6092 -97.3958 218° Southwest 305 351 8,900 -1,140 Descending Houston Center
11:10PM 26.5439 -97.4544 219° Southwest 302 348 7,800 -1,500 Descending Houston Center
11:12PM 26.4633 -97.5281 219° Southwest 284 327 5,500 -1,920 Descending Houston Center
11:12PM 26.4181 -97.5672 218° Southwest 272 313 3,900 -1,740 Descending Houston Center
11:13PM 26.3633 -97.6156 218° Southwest 254 292 2,400 -1,200 Descending Houston Center
11:15PM 26.3072 -97.6611 216° Southwest 195 224 1,400 -840 Descending Houston Center
11:16PM 26.2714 -97.6589 177° South 112 129 600 -720 Descending Houston Center
11:16PM 26.2414 -97.6589 180° South 126 145 100 -600 Descending Houston Center